Time;durP1;ratioP1;P1;durP2;ratioP2;P2;SDS_P1;SDS_P2;PMS_P1;PMS_P2;Temp;Humidity;BMP_temperature;BMP_pressure;BME280_temperature;BME280_humidity;BME280_pressure;Samples;Min_cycle;Max_cycle;Signal;HPM_P1;HPM_P2
2022/07/30 00:01:58;;;;;;;10.73;7.43;;;;;;;20.03;99.37;93158.13;5099791;28;20040;-78
2022/07/30 00:04:24;;;;;;;9.82;7.55;;;;;;;20.15;100.00;93178.66;5109221;28;20043;-78
2022/07/30 00:06:51;;;;;;;11.02;7.22;;;;;;;20.11;100.00;93183.63;5109181;28;20051;-78
2022/07/30 00:09:19;;;;;;;9.35;7.82;;;;;;;20.00;100.00;93174.31;5109119;28;20051;-78
2022/07/30 00:11:47;;;;;;;9.70;7.93;;;;;;;19.98;100.00;93179.78;5109445;28;20051;-78
2022/07/30 00:14:14;;;;;;;9.30;7.53;;;;;;;19.85;100.00;93180.34;5109504;28;20545;-78
2022/07/30 00:16:41;;;;;;;10.25;7.65;;;;;;;19.80;100.00;93180.38;5109473;28;20043;-78
2022/07/30 00:19:08;;;;;;;11.25;8.65;;;;;;;19.72;100.00;93166.84;5109180;28;20457;-76
2022/07/30 00:21:35;;;;;;;10.02;8.13;;;;;;;19.66;100.00;93167.91;5088873;28;20448;-78
2022/07/30 00:24:02;;;;;;;10.82;7.95;;;;;;;19.60;100.00;93166.38;5088468;28;20089;-77
2022/07/30 00:26:29;;;;;;;15.15;9.50;;;;;;;19.60;100.00;93171.59;5088332;28;20036;-77
2022/07/30 00:28:57;;;;;;;12.65;9.05;;;;;;;19.56;100.00;93178.38;5088776;28;20044;-78
2022/07/30 00:31:24;;;;;;;11.48;8.50;;;;;;;19.56;100.00;93180.97;5088686;28;20097;-78
2022/07/30 00:33:51;;;;;;;12.88;8.85;;;;;;;19.46;100.00;93164.34;5088655;28;20044;-78
2022/07/30 00:36:17;;;;;;;13.13;9.43;;;;;;;19.49;100.00;93176.06;5088555;28;20547;-78
2022/07/30 00:38:44;;;;;;;18.35;8.18;;;;;;;19.50;100.00;93175.78;5088697;28;20097;-79
2022/07/30 00:41:11;;;;;;;12.63;8.43;;;;;;;19.47;100.00;93173.72;5088614;28;20044;-79
2022/07/30 00:43:38;;;;;;;16.65;9.05;;;;;;;19.45;100.00;93175.03;5088669;28;20105;-80
2022/07/30 00:46:06;;;;;;;11.98;8.43;;;;;;;19.40;100.00;93170.63;5088358;28;20040;-79
2022/07/30 00:48:32;;;;;;;11.38;8.70;;;;;;;19.33;100.00;93175.31;5088547;28;20101;-79
2022/07/30 00:50:59;;;;;;;11.27;8.27;;;;;;;19.26;100.00;93172.22;5092361;28;20048;-79
2022/07/30 00:53:26;;;;;;;13.32;8.30;;;;;;;19.29;100.00;93172.47;5092723;28;20044;-79
2022/07/30 00:55:53;;;;;;;12.15;8.93;;;;;;;19.26;100.00;93172.22;5092150;28;20044;-79
2022/07/30 00:58:19;;;;;;;11.23;8.60;;;;;;;19.23;100.00;93170.94;5091545;28;20073;-78
2022/07/30 01:00:46;;;;;;;12.07;8.70;;;;;;;19.22;100.00;93167.53;5091888;28;20078;-79
2022/07/30 01:03:14;;;;;;;10.88;8.40;;;;;;;19.24;100.00;93167.28;5091952;28;20050;-79
2022/07/30 01:05:41;;;;;;;11.88;8.68;;;;;;;19.18;100.00;93163.91;5092443;28;20048;-78
2022/07/30 01:08:08;;;;;;;12.70;8.90;;;;;;;19.19;100.00;93169.88;5092006;28;20048;-79
2022/07/30 01:10:34;;;;;;;12.85;8.75;;;;;;;19.25;100.00;93166.22;5092330;28;20044;-79
2022/07/30 01:13:02;;;;;;;15.45;8.35;;;;;;;19.22;100.00;93170.13;5091626;28;20059;-76
2022/07/30 01:15:29;;;;;;;12.40;9.45;;;;;;;19.05;100.00;93156.66;5091858;28;20502;-80
2022/07/30 01:18:01;;;;;;;12.38;9.02;;;;;;;19.11;100.00;93175.66;5092353;28;20040;-79
2022/07/30 01:20:35;;;;;;;14.50;10.07;;;;;;;19.06;100.00;93168.59;5091569;28;20506;-78
2022/07/30 01:23:13;;;;;;;15.18;9.63;;;;;;;18.93;100.00;93164.72;5091896;28;20090;-79
2022/07/30 01:25:53;;;;;;;17.80;10.57;;;;;;;18.93;100.00;93162.88;5091886;28;20047;-78
2022/07/30 01:28:24;;;;;;;16.40;9.63;;;;;;;18.86;100.00;93169.41;5091935;28;20127;-78
2022/07/30 01:30:54;;;;;;;29.20;11.18;;;;;;;18.77;100.00;93163.94;5091593;28;20125;-78
2022/07/30 01:33:22;;;;;;;15.02;9.60;;;;;;;18.77;100.00;93167.34;5091588;28;20052;-77
2022/07/30 01:35:51;;;;;;;15.00;9.48;;;;;;;18.72;100.00;93169.16;5108770;28;20051;-77
2022/07/30 01:38:21;;;;;;;17.65;10.15;;;;;;;18.74;100.00;93167.84;5108815;28;20456;-77
2022/07/30 01:40:51;;;;;;;14.73;9.98;;;;;;;18.73;100.00;93162.91;5102201;28;20057;-77
2022/07/30 01:43:19;;;;;;;15.10;10.30;;;;;;;18.71;100.00;93157.97;5097752;28;20116;-82
2022/07/30 01:45:48;;;;;;;17.50;10.20;;;;;;;18.72;100.00;93156.13;5103083;28;20554;-82
2022/07/30 01:48:17;;;;;;;16.60;10.55;;;;;;;18.65;100.00;93151.97;5102833;28;20112;-82
2022/07/30 01:50:46;;;;;;;20.50;11.57;;;;;;;18.72;100.00;93158.75;5097793;28;20565;-77
2022/07/30 01:53:15;;;;;;;18.05;10.20;;;;;;;18.65;100.00;93159.03;5103051;28;20132;-78
2022/07/30 01:55:43;;;;;;;21.25;10.10;;;;;;;18.64;100.00;93160.84;5105884;28;20120;-79
2022/07/30 01:58:12;;;;;;;15.85;10.15;;;;;;;18.57;100.00;93149.91;5100047;28;20047;-79
2022/07/30 02:00:42;;;;;;;20.73;11.07;;;;;;;18.58;100.00;93161.88;5097533;28;20052;-79
2022/07/30 02:03:10;;;;;;;19.02;10.45;;;;;;;18.49;100.00;93163.44;5104711;28;20040;-79
2022/07/30 02:05:38;;;;;;;18.75;10.95;;;;;;;18.46;100.00;93159.53;5105784;28;20051;-79
2022/07/30 02:08:11;;;;;;;18.50;11.50;;;;;;;18.41;100.00;93151.72;5097455;28;20051;-79
2022/07/30 02:10:43;;;;;;;20.90;10.80;;;;;;;18.26;100.00;93145.50;5099151;28;20052;-79
2022/07/30 02:13:16;;;;;;;23.15;11.50;;;;;;;18.29;100.00;93157.19;5105599;28;20040;-79
2022/07/30 02:15:48;;;;;;;20.85;12.00;;;;;;;18.27;100.00;93157.44;5104676;28;20051;-79
2022/07/30 02:18:20;;;;;;;24.95;13.02;;;;;;;18.07;100.00;93150.41;5097443;28;20138;-79
2022/07/30 02:20:51;;;;;;;20.90;11.55;;;;;;;18.06;100.00;93148.84;5099214;28;20043;-79
2022/07/30 02:23:19;;;;;;;20.92;12.15;;;;;;;18.13;100.00;93148.56;5105714;28;20078;-79
2022/07/30 02:25:50;;;;;;;21.95;11.75;;;;;;;18.10;100.00;93143.91;5103154;28;20048;-79
2022/07/30 02:28:21;;;;;;;22.00;11.40;;;;;;;18.12;100.00;93144.41;5097582;28;20073;-79
2022/07/30 02:30:51;;;;;;;18.75;11.52;;;;;;;18.14;100.00;93148.31;5100326;28;20109;-79
2022/07/30 02:33:21;;;;;;;17.77;11.18;;;;;;;18.18;100.00;93145.22;5105362;28;20043;-79
2022/07/30 02:35:51;;;;;;;21.55;12.27;;;;;;;18.20;100.00;93143.94;5101444;28;20048;-79
2022/07/30 02:38:20;;;;;;;19.45;12.23;;;;;;;18.22;100.00;93144.44;5097411;28;20048;-79
2022/07/30 02:40:48;;;;;;;22.20;11.07;;;;;;;18.12;100.00;93139.22;5101815;28;20117;-76
2022/07/30 02:43:15;;;;;;;22.98;12.05;;;;;;;18.10;100.00;93139.47;5104612;28;20500;-76
2022/07/30 02:45:46;;;;;;;19.42;10.65;;;;;;;17.86;100.00;93106.16;5094817;28;20051;-76
2022/07/30 02:48:14;;;;;;;20.85;11.75;;;;;;;18.05;100.00;93143.88;5101130;28;20040;-76
2022/07/30 02:50:42;;;;;;;20.88;12.52;;;;;;;17.95;100.00;93137.59;5096824;28;20051;-76
2022/07/30 02:53:10;;;;;;;22.67;12.18;;;;;;;17.85;100.00;93127.97;5101527;28;20047;-76
2022/07/30 02:55:39;;;;;;;21.98;11.30;;;;;;;17.86;100.00;93136.53;5104628;28;20047;-77
2022/07/30 02:58:07;;;;;;;21.55;12.55;;;;;;;17.83;100.00;93126.69;5097933;28;20040;-77
2022/07/30 03:00:35;;;;;;;21.08;11.23;;;;;;;17.81;100.00;93126.94;5096587;28;20104;-77
2022/07/30 03:03:06;;;;;;;22.98;11.68;;;;;;;17.86;100.00;93121.75;5097040;28;20044;-77
2022/07/30 03:05:34;;;;;;;24.80;12.82;;;;;;;17.87;100.00;93125.91;5097544;28;20492;-76
2022/07/30 03:08:01;;;;;;;19.63;11.32;;;;;;;17.90;100.00;93127.19;5104209;28;20036;-77
2022/07/30 03:10:30;;;;;;;19.90;10.77;;;;;;;17.92;100.00;93129.56;5101410;28;20101;-77
2022/07/30 03:12:59;;;;;;;17.67;10.80;;;;;;;17.88;100.00;93127.44;5094899;28;20046;-76
2022/07/30 03:15:28;;;;;;;24.02;10.88;;;;;;;17.84;100.00;93123.03;5100003;28;20044;-78
2022/07/30 03:17:58;;;;;;;19.73;10.95;;;;;;;17.84;100.00;93123.81;5104016;28;20069;-76
2022/07/30 03:20:29;;;;;;;20.60;10.73;;;;;;;17.88;100.00;93127.44;5099236;28;20554;-76
2022/07/30 03:22:58;;;;;;;20.67;10.38;;;;;;;17.86;100.00;93126.16;5091170;28;20040;-76
2022/07/30 03:25:27;;;;;;;20.30;11.10;;;;;;;17.78;100.00;93124.84;5101581;28;20079;-78
2022/07/30 03:27:56;;;;;;;18.67;11.82;;;;;;;17.82;100.00;93128.47;5095762;28;20489;-77
2022/07/30 03:30:24;;;;;;;18.63;11.02;;;;;;;17.76;100.00;93138.09;5096854;28;20047;-76
2022/07/30 03:32:51;;;;;;;23.08;12.43;;;;;;;17.71;100.00;93132.88;5103769;28;20040;-76
2022/07/30 03:35:20;;;;;;;18.85;11.32;;;;;;;17.67;100.00;93128.47;5101334;28;20051;-77
2022/07/30 03:37:49;;;;;;;22.05;12.55;;;;;;;17.48;100.00;93108.13;5095463;28;20493;-78
2022/07/30 03:40:17;;;;;;;18.23;10.60;;;;;;;17.63;100.00;93141.16;5099381;28;20052;-78
2022/07/30 03:42:45;;;;;;;18.80;10.88;;;;;;;17.62;100.00;93140.41;5103916;28;20051;-78
2022/07/30 03:45:13;;;;;;;22.75;11.68;;;;;;;17.65;100.00;93139.09;5097493;28;20052;-78
2022/07/30 03:47:41;;;;;;;18.58;11.50;;;;;;;17.40;100.00;93116.44;5095615;28;20385;-77
2022/07/30 03:50:09;;;;;;;19.85;11.90;;;;;;;17.48;100.00;93132.28;5096977;28;20515;-77
2022/07/30 03:52:39;;;;;;;22.02;11.77;;;;;;;17.58;100.00;93141.13;5096741;28;20051;-79
2022/07/30 03:55:09;;;;;;;17.85;11.10;;;;;;;17.57;100.00;93139.59;5096410;28;20055;-77
2022/07/30 03:57:36;;;;;;;17.63;11.23;;;;;;;17.58;100.00;93141.13;5089031;28;20040;-80
2022/07/30 04:00:04;;;;;;;18.52;10.43;;;;;;;17.60;100.00;93147.63;5088854;28;20499;-78
2022/07/30 04:02:31;;;;;;;20.40;11.43;;;;;;;17.66;100.00;93145.06;5088753;28;20493;-78
2022/07/30 04:04:57;;;;;;;26.77;12.55;;;;;;;17.68;100.00;93150.81;5088654;28;20040;-77
2022/07/30 04:07:24;;;;;;;21.85;11.85;;;;;;;17.75;100.00;93148.75;5089325;28;20048;-77
2022/07/30 04:09:51;;;;;;;18.70;10.65;;;;;;;17.73;100.00;93146.38;5088321;28;20048;-76
2022/07/30 04:12:19;;;;;;;18.05;11.30;;;;;;;17.82;100.00;93149.25;5088696;28;20097;-76
2022/07/30 04:14:46;;;;;;;20.05;10.60;;;;;;;17.89;100.00;93154.22;5088889;28;20043;-76
2022/07/30 04:17:29;;;;;;;13.25;9.02;;;;;;;17.64;100.00;93147.94;5092590;28;20044;-77
2022/07/30 04:20:01;;;;;;;17.08;10.23;;;;;;;17.73;100.00;93148.22;5097730;28;20418;-77
2022/07/30 04:22:32;;;;;;;14.30;9.57;;;;;;;17.81;100.00;93155.50;5088356;28;20043;-77
2022/07/30 04:25:01;;;;;;;18.85;10.55;;;;;;;17.88;100.00;93155.28;5089479;28;20100;-77
2022/07/30 04:27:30;;;;;;;13.80;9.82;;;;;;;18.08;100.00;93158.97;5103693;28;20047;-76
2022/07/30 04:29:57;;;;;;;18.73;10.38;;;;;;;18.16;100.00;93163.66;5097430;28;20047;-76
2022/07/30 04:32:24;;;;;;;15.88;9.63;;;;;;;18.21;100.00;93157.69;5102634;28;20044;-76
2022/07/30 04:34:53;;;;;;;14.75;9.38;;;;;;;18.21;100.00;93155.09;5112278;28;20047;-76
2022/07/30 04:37:21;;;;;;;16.65;10.25;;;;;;;18.34;100.00;93164.22;5108355;28;20152;-76
2022/07/30 04:39:50;;;;;;;14.30;9.10;;;;;;;18.52;100.00;93165.53;5104329;28;20054;-76
2022/07/30 04:42:17;;;;;;;14.10;9.50;;;;;;;18.60;100.00;93161.63;5098531;28;20496;-76
2022/07/30 04:44:45;;;;;;;16.40;9.35;;;;;;;18.72;100.00;93167.34;5109492;28;20047;-76
2022/07/30 04:47:12;;;;;;;12.48;9.02;;;;;;;18.82;100.00;93166.53;5096585;28;20509;-76
2022/07/30 04:49:41;;;;;;;15.75;7.85;;;;;;;18.92;100.00;93161.31;5106876;28;20136;-76
2022/07/30 04:52:09;;;;;;;11.52;8.35;;;;;;;19.01;100.00;93163.38;5107007;28;20141;-76
2022/07/30 04:54:41;;;;;;;15.15;8.52;;;;;;;19.04;100.00;93153.28;5105776;28;20044;-76
2022/07/30 04:57:10;;;;;;;14.73;8.32;;;;;;;19.09;100.00;93153.28;5098995;28;20043;-80
2022/07/30 04:59:37;;;;;;;16.77;8.73;;;;;;;19.13;100.00;93158.72;5103643;28;20062;-80
2022/07/30 05:02:07;;;;;;;12.00;8.45;;;;;;;19.21;100.00;93154.81;5109156;28;20089;-80
2022/07/30 05:04:35;;;;;;;14.63;8.23;;;;;;;19.09;100.00;93140.25;5104119;28;20044;-79
2022/07/30 05:07:03;;;;;;;12.38;8.38;;;;;;;19.07;100.00;93155.34;5098840;28;20390;-77
2022/07/30 05:09:30;;;;;;;13.77;9.38;;;;;;;19.11;100.00;93137.34;5103485;28;20085;-78
2022/07/30 05:11:58;;;;;;;13.57;8.73;;;;;;;19.29;100.00;93154.25;5106943;28;20047;-78
2022/07/30 05:14:26;;;;;;;11.65;7.68;;;;;;;19.38;100.00;93151.88;5100446;28;20052;-77
2022/07/30 05:16:53;;;;;;;11.02;7.85;;;;;;;19.54;100.00;93149.22;5098575;28;20073;-78
2022/07/30 05:19:22;;;;;;;11.38;8.45;;;;;;;19.58;100.00;93140.59;5092727;28;20131;-81
2022/07/30 05:21:49;;;;;;;12.23;8.52;;;;;;;19.55;100.00;93141.13;5092480;28;20101;-80
2022/07/30 05:24:16;;;;;;;12.23;8.50;;;;;;;19.70;100.00;93147.31;5107085;28;20044;-81
2022/07/30 05:26:43;;;;;;;11.20;8.20;;;;;;;19.66;100.00;93125.47;5104154;28;21183;-81
2022/07/30 05:29:10;;;;;;;10.77;9.02;;;;;;;19.95;100.00;93154.22;5098458;28;20179;-81
2022/07/30 05:31:36;;;;;;;19.52;8.55;;;;;;;20.04;100.00;93151.84;5103126;28;20441;-80
2022/07/30 05:34:03;;;;;;;14.23;8.70;;;;;;;20.16;99.44;93154.91;5097965;28;20117;-80
2022/07/30 05:36:31;;;;;;;12.07;8.40;;;;;;;20.25;99.19;93149.13;5090907;28;20094;-80
2022/07/30 05:38:59;;;;;;;12.55;8.40;;;;;;;20.20;98.87;93152.53;5099249;28;20031;-80
2022/07/30 05:41:26;;;;;;;11.68;8.00;;;;;;;20.34;99.70;93154.53;5099402;28;20134;-81
2022/07/30 05:43:53;;;;;;;13.98;8.50;;;;;;;20.43;99.68;93152.91;5106319;28;20047;-80
2022/07/30 05:46:20;;;;;;;16.77;8.63;;;;;;;20.43;98.19;93140.63;5095254;28;20562;-81
2022/07/30 05:48:47;;;;;;;17.85;9.63;;;;;;;20.68;98.01;93153.75;5104794;28;20043;-81
2022/07/30 05:51:14;;;;;;;14.23;8.90;;;;;;;20.86;94.95;93161.97;5091132;28;20051;-81
2022/07/30 05:53:42;;;;;;;14.75;8.75;;;;;;;21.04;90.91;93168.34;5091750;28;20093;-80
2022/07/30 05:56:09;;;;;;;14.10;9.32;;;;;;;21.04;90.84;93145.63;5091483;28;20044;-80
2022/07/30 05:58:36;;;;;;;14.48;8.82;;;;;;;21.13;91.74;93155.44;5103839;28;20393;-81
2022/07/30 06:01:03;;;;;;;17.55;10.27;;;;;;;21.29;90.19;93159.47;5091378;28;20511;-81
2022/07/30 06:03:30;;;;;;;13.82;9.40;;;;;;;21.38;90.98;93158.88;5102968;28;20051;-81
2022/07/30 06:05:56;;;;;;;18.13;10.85;;;;;;;21.46;89.38;93155.63;5091733;28;20463;-81
2022/07/30 06:08:23;;;;;;;27.92;14.85;;;;;;;21.74;88.24;93164.47;5105425;28;20047;-81
2022/07/30 06:10:51;;;;;;;23.23;13.80;;;;;;;22.05;86.52;93170.38;5097557;28;20043;-82
2022/07/30 06:13:18;;;;;;;25.67;15.20;;;;;;;22.03;85.48;93173.25;5099879;28;20052;-82
2022/07/30 06:15:45;;;;;;;27.23;14.63;;;;;;;21.78;86.75;93169.13;5091466;28;21452;-81
2022/07/30 06:18:11;;;;;;;30.45;14.93;;;;;;;22.08;87.24;93169.81;5097610;28;20069;-81
2022/07/30 06:20:38;;;;;;;25.83;13.45;;;;;;;22.21;87.07;93157.88;5111076;28;20052;-82
2022/07/30 06:23:05;;;;;;;28.15;16.27;;;;;;;22.54;82.09;93171.03;5107395;28;20098;-82
2022/07/30 06:25:32;;;;;;;27.52;14.38;;;;;;;22.78;81.75;93157.78;5101890;28;20047;-83
2022/07/30 06:28:00;;;;;;;30.25;13.50;;;;;;;23.06;81.29;93144.72;5109154;28;20077;-82
2022/07/30 06:30:28;;;;;;;29.48;13.85;;;;;;;23.38;78.50;93149.44;5100185;28;20050;-82
2022/07/30 06:32:55;;;;;;;23.17;12.82;;;;;;;23.58;74.86;93156.13;5097225;28;20055;-82
2022/07/30 06:35:22;;;;;;;21.20;11.07;;;;;;;23.82;70.92;93150.69;5102764;28;20089;-86
2022/07/30 06:37:49;;;;;;;25.15;13.40;;;;;;;24.07;70.49;93145.19;5097376;28;20048;-83
2022/07/30 06:40:21;;;;;;;24.17;12.30;;;;;;;24.45;72.46;93131.75;5098998;28;20032;-82
2022/07/30 06:42:48;;;;;;;18.65;9.48;;;;;;;24.47;64.09;93098.09;5091248;28;20055;-82
2022/07/30 06:45:20;;;;;;;15.65;10.40;;;;;;;24.70;66.36;93119.06;5091614;28;20113;-84
2022/07/30 06:47:48;;;;;;;14.15;8.95;;;;;;;24.91;65.83;93116.72;5090701;28;20055;-83
2022/07/30 06:50:17;;;;;;;15.70;9.88;;;;;;;25.21;66.10;93122.28;5091125;28;20101;-84
2022/07/30 06:52:44;;;;;;;12.77;7.68;;;;;;;25.46;63.50;93127.91;5098425;28;20043;-83
2022/07/30 06:55:11;;;;;;;12.32;8.48;;;;;;;26.01;62.08;93123.25;5098899;28;20048;-81
2022/07/30 06:57:38;;;;;;;12.02;8.18;;;;;;;26.49;59.62;93117.38;5104931;28;20044;-81
2022/07/30 07:00:06;;;;;;;11.00;7.57;;;;;;;26.60;58.24;93109.91;5093381;28;20043;-81
2022/07/30 07:02:35;;;;;;;9.02;6.57;;;;;;;26.89;55.34;93119.75;5104394;28;20500;-80
2022/07/30 07:05:01;;;;;;;12.13;6.95;;;;;;;26.88;55.92;93096.38;5104592;28;20048;-81
2022/07/30 07:07:28;;;;;;;11.13;7.05;;;;;;;27.23;56.21;93117.34;5103072;28;20429;-81
2022/07/30 07:09:55;;;;;;;10.20;6.90;;;;;;;26.89;55.98;93117.09;5096633;28;20047;-81
2022/07/30 07:12:22;;;;;;;11.55;7.28;;;;;;;27.22;54.64;93102.63;5100327;28;20052;-80
2022/07/30 07:14:48;;;;;;;13.38;7.47;;;;;;;27.09;54.79;93112.28;5104814;28;20543;-81
2022/07/30 07:17:15;;;;;;;10.85;7.30;;;;;;;26.91;54.83;93107.03;5099901;28;20051;-81
2022/07/30 07:19:43;;;;;;;12.90;7.07;;;;;;;27.19;54.25;93108.50;5099043;28;20039;-81
2022/07/30 07:22:10;;;;;;;9.88;6.63;;;;;;;27.64;54.50;93109.88;5103182;28;20036;-81
2022/07/30 07:24:37;;;;;;;10.52;6.38;;;;;;;27.76;54.17;93109.16;5104480;28;20409;-82
2022/07/30 07:27:04;;;;;;;11.80;6.90;;;;;;;28.07;52.10;93118.56;5096070;28;20089;-82
2022/07/30 07:29:30;;;;;;;9.88;6.55;;;;;;;28.15;51.44;93115.09;5098512;28;20040;-82
2022/07/30 07:31:57;;;;;;;10.23;6.68;;;;;;;28.05;51.23;93109.44;5089047;28;20482;-82
2022/07/30 07:34:24;;;;;;;12.68;7.15;;;;;;;28.60;53.18;93112.09;5106968;28;20554;-82
2022/07/30 07:36:52;;;;;;;13.95;8.20;;;;;;;29.07;50.54;93117.03;5097222;28;20094;-82
2022/07/30 07:39:19;;;;;;;14.43;8.80;;;;;;;29.18;49.35;93124.56;5104169;28;20052;-81
2022/07/30 07:41:45;;;;;;;18.27;9.88;;;;;;;29.37;49.72;93123.22;5101296;28;20075;-82
2022/07/30 07:44:12;;;;;;;20.80;9.85;;;;;;;29.43;50.41;93119.28;5095610;28;20458;-82
2022/07/30 07:46:39;;;;;;;22.17;10.27;;;;;;;29.75;49.47;93119.47;5098646;28;20044;-82
2022/07/30 07:49:06;;;;;;;17.67;9.85;;;;;;;29.43;48.36;93117.41;5104389;28;20044;-82
2022/07/30 07:51:34;;;;;;;18.83;10.55;;;;;;;29.25;49.71;93108.91;5099894;28;20084;-82
2022/07/30 07:54:03;;;;;;;23.92;10.40;;;;;;;29.49;49.01;93109.25;5096133;28;20083;-83
2022/07/30 07:56:29;;;;;;;22.60;10.52;;;;;;;29.87;49.13;93108.09;5101695;28;20105;-82
2022/07/30 07:58:56;;;;;;;25.60;12.20;;;;;;;29.57;48.39;93117.09;5103190;28;20047;-82
2022/07/30 08:01:23;;;;;;;23.60;10.82;;;;;;;28.89;49.60;93124.44;5094134;28;20089;-82
2022/07/30 08:03:50;;;;;;;32.97;12.20;;;;;;;29.44;50.35;93116.28;5109420;28;20039;-82
2022/07/30 08:06:16;;;;;;;28.13;10.93;;;;;;;30.00;49.39;93099.00;5103302;28;20587;-83
2022/07/30 08:08:43;;;;;;;26.85;10.55;;;;;;;30.59;47.64;93106.66;5089719;28;20457;-82
2022/07/30 08:11:11;;;;;;;24.05;10.77;;;;;;;30.85;46.54;93107.31;5096260;28;20501;-83
2022/07/30 08:13:38;;;;;;;24.40;11.18;;;;;;;31.22;46.63;93099.13;5096508;28;20534;-83
2022/07/30 08:16:07;;;;;;;26.30;10.10;;;;;;;31.58;46.09;93105.28;5103500;28;20090;-82
2022/07/30 08:18:33;;;;;;;20.13;9.30;;;;;;;31.89;45.89;93107.44;5101385;28;20051;-82
2022/07/30 08:21:00;;;;;;;21.80;10.20;;;;;;;32.34;44.08;93106.06;5103237;28;20463;-82
2022/07/30 08:23:27;;;;;;;22.92;10.05;;;;;;;32.34;44.02;93108.72;5090747;28;20048;-82
2022/07/30 08:28:39;;;;;;;24.38;10.65;;;;;;;32.95;43.11;93096.88;5088545;28;20089;-81
2022/07/30 08:31:06;;;;;;;18.67;9.52;;;;;;;33.09;43.25;93101.69;5088385;28;20048;-83
2022/07/30 08:33:32;;;;;;;14.57;8.38;;;;;;;33.42;43.12;93095.72;5088582;28;20501;-80
2022/07/30 08:35:59;;;;;;;16.70;8.68;;;;;;;33.51;40.37;93098.16;5099032;28;20047;-81
2022/07/30 08:38:26;;;;;;;14.63;8.80;;;;;;;33.17;42.00;93098.00;5095167;28;20047;-81
2022/07/30 08:40:55;;;;;;;14.90;8.48;;;;;;;32.87;43.12;93090.66;5099845;28;20048;-81
2022/07/30 08:43:25;;;;;;;17.13;9.18;;;;;;;31.59;43.11;93095.41;5103147;28;20044;-81
2022/07/30 08:45:56;;;;;;;18.30;8.77;;;;;;;31.77;44.21;93073.78;5092771;28;20197;-83
2022/07/30 08:48:23;;;;;;;12.40;8.05;;;;;;;32.44;42.66;93090.69;5100813;28;20108;-81
2022/07/30 08:50:50;;;;;;;15.80;9.23;;;;;;;32.39;44.00;93073.88;5094700;28;20043;-82
2022/07/30 08:53:17;;;;;;;17.38;8.32;;;;;;;33.01;44.12;93092.81;5098997;28;20543;-82
2022/07/30 08:55:45;;;;;;;11.20;7.40;;;;;;;33.48;43.29;93095.41;5103347;28;20443;-82
2022/07/30 08:58:22;;;;;;;13.13;7.88;;;;;;;33.53;41.01;93077.28;5097351;28;20458;-81
2022/07/30 09:00:49;;;;;;;15.15;7.82;;;;;;;33.99;42.23;93081.69;5092683;28;20055;-82
2022/07/30 09:03:17;;;;;;;8.68;6.90;;;;;;;34.16;38.59;93084.16;5097096;28;20097;-83
2022/07/30 09:05:45;;;;;;;10.45;7.65;;;;;;;33.88;39.71;93075.47;5094728;28;20052;-82
2022/07/30 09:08:12;;;;;;;15.75;7.63;;;;;;;34.29;40.07;93068.69;5102057;28;20077;-83
2022/07/30 09:10:38;;;;;;;13.20;8.32;;;;;;;34.30;41.10;93046.25;5102999;28;20151;-84
2022/07/30 09:13:05;;;;;;;18.02;7.80;;;;;;;34.76;40.57;93064.59;5098344;28;20044;-83
2022/07/30 09:15:32;;;;;;;12.43;7.95;;;;;;;34.92;39.47;93059.03;5113251;28;20097;-84
2022/07/30 09:18:01;;;;;;;16.50;7.82;;;;;;;35.19;38.82;93052.78;5098822;28;20040;-84
2022/07/30 09:20:32;;;;;;;12.05;8.27;;;;;;;35.47;39.24;93051.41;5111682;28;20571;-83
2022/07/30 09:23:00;;;;;;;13.07;8.88;;;;;;;35.57;39.15;93057.97;5098310;28;20048;-84
2022/07/30 09:25:35;;;;;;;12.48;7.47;;;;;;;35.83;37.35;93048.94;5103642;28;20052;-85
2022/07/30 09:28:02;;;;;;;;;;;;;;;35.90;37.53;93047.47;5106822;28;20127;-84
2022/07/30 09:30:44;;;;;;;10.90;7.28;;;;;;;35.90;38.18;93042.13;5100601;28;19976;-83
2022/07/30 09:33:11;;;;;;;8.88;7.03;;;;;;;36.05;36.92;93050.97;5098045;28;20051;-84
2022/07/30 09:35:41;;;;;;;8.38;6.38;;;;;;;34.73;37.01;93025.34;5102968;28;20561;-84
2022/07/30 09:38:08;;;;;;;11.68;7.80;;;;;;;34.63;37.92;93044.69;5097372;28;20059;-85
2022/07/30 09:40:36;;;;;;;11.68;7.15;;;;;;;34.83;39.39;93042.56;5104311;28;20048;-85
2022/07/30 09:43:06;;;;;;;9.93;7.45;;;;;;;34.89;39.59;93025.06;5105673;28;20051;-84
2022/07/30 09:45:33;;;;;;;10.63;7.47;;;;;;;34.99;38.89;93036.22;5105787;28;20044;-85
2022/07/30 09:48:00;;;;;;;9.43;7.45;;;;;;;35.10;38.55;93041.63;5100672;28;20096;-83
2022/07/30 09:50:27;;;;;;;10.15;7.20;;;;;;;34.78;38.11;93018.88;5097959;28;20040;-84
2022/07/30 09:53:05;;;;;;;10.32;6.93;;;;;;;35.12;38.90;93015.38;5105021;28;20463;-83
2022/07/30 09:55:39;;;;;;;11.05;7.55;;;;;;;35.44;38.13;93028.91;5105973;28;20046;-85
2022/07/30 09:58:06;;;;;;;9.80;7.38;;;;;;;35.57;37.38;93021.34;5099194;28;20096;-84
2022/07/30 10:00:35;;;;;;;16.50;7.30;;;;;;;35.83;37.99;93030.25;5098368;28;20052;-83
2022/07/30 10:03:14;;;;;;;8.43;6.88;;;;;;;35.54;35.64;93018.66;5091488;28;20032;-86
2022/07/30 10:05:50;;;;;;;8.48;7.13;;;;;;;35.62;36.08;92995.44;5091718;28;20048;-85
2022/07/30 10:08:18;;;;;;;10.27;6.90;;;;;;;35.78;36.86;93009.25;5091445;28;20051;-84
2022/07/30 10:10:46;;;;;;;8.20;6.78;;;;;;;36.05;35.67;93010.88;5087781;28;20097;-84
2022/07/30 10:13:14;;;;;;;10.52;7.00;;;;;;;36.10;35.92;93003.22;5104593;28;20138;-85
2022/07/30 10:15:42;;;;;;;10.65;7.00;;;;;;;35.96;33.76;92995.94;5099441;28;20108;-84
2022/07/30 10:18:09;;;;;;;8.60;7.18;;;;;;;34.53;35.70;92998.09;5097146;28;20069;-86
2022/07/30 10:20:37;;;;;;;9.32;7.35;;;;;;;33.26;39.67;93015.25;5102026;28;20084;-85
2022/07/30 10:23:07;;;;;;;12.30;7.93;;;;;;;32.74;39.65;93007.63;5098200;28;20048;-85
2022/07/30 10:25:36;;;;;;;12.30;7.85;;;;;;;33.27;40.64;93009.56;5105272;28;20044;-85
2022/07/30 10:28:04;;;;;;;9.57;7.15;;;;;;;33.17;39.90;92995.00;5102615;28;20096;-84
2022/07/30 10:30:31;;;;;;;11.70;7.35;;;;;;;32.89;39.03;93000.63;5096548;28;20044;-85
2022/07/30 10:32:59;;;;;;;9.95;7.45;;;;;;;33.27;39.56;92988.28;5101103;28;20059;-84
2022/07/30 10:35:26;;;;;;;11.25;7.82;;;;;;;33.62;39.84;92988.34;5104956;28;20073;-84
2022/07/30 10:37:55;;;;;;;10.50;6.78;;;;;;;33.71;38.84;92988.84;5099189;28;20131;-85
2022/07/30 10:40:30;;;;;;;12.32;7.55;;;;;;;33.69;38.70;92989.22;5096633;28;20497;-85
2022/07/30 10:43:27;;;;;;;9.77;7.53;;;;;;;33.79;39.14;92985.13;5102855;28;20049;-85
2022/07/30 10:46:01;;;;;;;10.55;7.13;;;;;;;33.62;38.30;92978.47;5088755;28;20039;-85
2022/07/30 10:48:31;;;;;;;11.93;7.87;;;;;;;34.07;39.82;92983.19;5098158;28;20503;-84
2022/07/30 10:50:59;;;;;;;9.02;7.07;;;;;;;33.54;37.28;92980.28;5104511;28;20535;-85
2022/07/30 10:53:36;;;;;;;9.88;7.10;;;;;;;33.68;37.92;92966.38;5102168;28;20101;-84
2022/07/30 10:56:18;;;;;;;10.70;6.60;;;;;;;33.11;37.50;92982.34;5096586;28;20044;-85
2022/07/30 10:59:00;;;;;;;8.90;6.88;;;;;;;32.34;39.56;92983.78;5097003;28;20076;-86
2022/07/30 11:02:10;;;;;;;10.68;6.43;;;;;;;31.06;41.52;92927.47;5090286;28;20113;-86
2022/07/30 11:04:36;;;;;;;7.63;5.95;;;;;;;31.23;40.72;92911.53;5090124;28;20444;-85
2022/07/30 11:07:30;;;;;;;12.95;6.82;;;;;;;31.60;39.38;92962.34;5101734;28;20079;-85
2022/07/30 11:10:00;;;;;;;10.10;6.32;;;;;;;32.14;40.37;92951.19;5090370;28;20405;-83
2022/07/30 11:12:53;;;;;;;7.53;5.95;;;;;;;33.00;39.86;92956.34;5090147;28;20048;-83
2022/07/30 11:15:22;;;;;;;10.30;6.60;;;;;;;33.61;39.42;92941.56;5100226;28;20455;-83
2022/07/30 11:18:04;;;;;;;9.30;5.93;;;;;;;34.05;35.89;92922.25;5096046;28;20055;-84
2022/07/30 11:20:36;;;;;;;11.82;6.57;;;;;;;34.44;38.42;92904.31;5109681;28;20043;-83
2022/07/30 11:23:10;;;;;;;9.25;6.93;;;;;;;35.01;37.03;92925.28;5095590;28;20040;-83
2022/07/30 11:25:42;;;;;;;8.47;6.73;;;;;;;35.34;35.86;92938.81;5100678;28;20040;-83
2022/07/30 11:28:34;;;;;;;9.25;6.30;;;;;;;35.55;35.71;92934.72;5104260;28;20044;-83
2022/07/30 11:31:04;;;;;;;9.82;6.10;;;;;;;35.75;35.25;92948.53;5103494;28;20132;-84